sensor_id;sensor_type;location;lat;lon;timestamp;P1;durP1;ratioP1;P2;durP2;ratioP2
23290;SDS011;11814;44.686;10.842;2024-03-23T00:53:36;36.50;;;24.17;;
23290;SDS011;11814;44.686;10.842;2024-03-23T00:56:02;38.97;;;24.58;;
23290;SDS011;11814;44.686;10.842;2024-03-23T00:58:28;35.05;;;23.67;;
23290;SDS011;11814;44.686;10.842;2024-03-23T01:00:54;34.45;;;23.25;;
23290;SDS011;11814;44.686;10.842;2024-03-23T01:03:20;32.17;;;23.77;;
23290;SDS011;11814;44.686;10.842;2024-03-23T01:05:45;32.72;;;23.75;;
23290;SDS011;11814;44.686;10.842;2024-03-23T01:08:11;29.63;;;23.98;;
23290;SDS011;11814;44.686;10.842;2024-03-23T01:10:37;33.70;;;22.85;;
23290;SDS011;11814;44.686;10.842;2024-03-23T01:13:02;31.92;;;24.73;;
23290;SDS011;11814;44.686;10.842;2024-03-23T01:15:28;35.83;;;24.90;;
23290;SDS011;11814;44.686;10.842;2024-03-23T01:17:53;32.67;;;24.50;;
23290;SDS011;11814;44.686;10.842;2024-03-23T01:20:19;34.35;;;26.38;;
23290;SDS011;11814;44.686;10.842;2024-03-23T01:22:45;33.53;;;24.35;;
23290;SDS011;11814;44.686;10.842;2024-03-23T01:25:10;34.15;;;23.98;;
23290;SDS011;11814;44.686;10.842;2024-03-23T01:27:36;32.97;;;24.75;;
23290;SDS011;11814;44.686;10.842;2024-03-23T01:30:02;32.88;;;23.25;;
23290;SDS011;11814;44.686;10.842;2024-03-23T01:32:27;29.13;;;23.33;;
23290;SDS011;11814;44.686;10.842;2024-03-23T01:34:53;33.83;;;24.02;;
23290;SDS011;11814;44.686;10.842;2024-03-23T01:37:19;32.22;;;24.30;;
23290;SDS011;11814;44.686;10.842;2024-03-23T01:39:44;31.70;;;24.13;;
23290;SDS011;11814;44.686;10.842;2024-03-23T01:42:10;33.97;;;24.50;;
23290;SDS011;11814;44.686;10.842;2024-03-23T01:44:35;40.42;;;25.55;;
23290;SDS011;11814;44.686;10.842;2024-03-23T01:47:01;31.13;;;24.40;;
23290;SDS011;11814;44.686;10.842;2024-03-23T01:49:27;32.28;;;24.08;;
23290;SDS011;11814;44.686;10.842;2024-03-23T01:51:52;31.88;;;24.02;;
23290;SDS011;11814;44.686;10.842;2024-03-23T01:54:18;29.38;;;22.27;;
23290;SDS011;11814;44.686;10.842;2024-03-23T01:56:44;31.65;;;23.23;;
23290;SDS011;11814;44.686;10.842;2024-03-23T01:59:10;30.95;;;22.80;;
23290;SDS011;11814;44.686;10.842;2024-03-23T02:01:36;36.75;;;23.15;;
23290;SDS011;11814;44.686;10.842;2024-03-23T02:04:01;31.17;;;23.52;;
23290;SDS011;11814;44.686;10.842;2024-03-23T02:06:27;39.30;;;23.63;;
23290;SDS011;11814;44.686;10.842;2024-03-23T02:08:55;31.60;;;23.23;;
23290;SDS011;11814;44.686;10.842;2024-03-23T02:11:21;33.35;;;23.23;;
23290;SDS011;11814;44.686;10.842;2024-03-23T02:13:47;35.85;;;24.60;;
23290;SDS011;11814;44.686;10.842;2024-03-23T02:16:13;33.42;;;23.88;;
23290;SDS011;11814;44.686;10.842;2024-03-23T02:18:38;36.30;;;25.48;;
23290;SDS011;11814;44.686;10.842;2024-03-23T02:21:04;30.17;;;22.33;;
23290;SDS011;11814;44.686;10.842;2024-03-23T02:23:30;31.45;;;23.00;;
23290;SDS011;11814;44.686;10.842;2024-03-23T02:25:56;30.55;;;23.70;;
23290;SDS011;11814;44.686;10.842;2024-03-23T02:28:24;30.73;;;23.02;;
23290;SDS011;11814;44.686;10.842;2024-03-23T02:30:50;31.15;;;22.48;;
23290;SDS011;11814;44.686;10.842;2024-03-23T02:33:16;34.70;;;22.85;;
23290;SDS011;11814;44.686;10.842;2024-03-23T02:35:43;30.90;;;23.27;;
23290;SDS011;11814;44.686;10.842;2024-03-23T02:38:09;33.58;;;23.52;;
23290;SDS011;11814;44.686;10.842;2024-03-23T02:40:35;31.55;;;22.23;;
23290;SDS011;11814;44.686;10.842;2024-03-23T02:43:02;31.90;;;22.70;;
23290;SDS011;11814;44.686;10.842;2024-03-23T02:45:28;32.13;;;22.23;;
23290;SDS011;11814;44.686;10.842;2024-03-23T02:47:53;28.48;;;22.15;;
23290;SDS011;11814;44.686;10.842;2024-03-23T02:50:19;29.92;;;22.50;;
23290;SDS011;11814;44.686;10.842;2024-03-23T02:52:45;28.42;;;22.42;;
23290;SDS011;11814;44.686;10.842;2024-03-23T02:55:11;29.42;;;22.00;;
23290;SDS011;11814;44.686;10.842;2024-03-23T02:57:37;32.78;;;23.30;;
23290;SDS011;11814;44.686;10.842;2024-03-23T03:00:03;30.67;;;22.30;;
23290;SDS011;11814;44.686;10.842;2024-03-23T03:02:29;33.97;;;22.83;;
23290;SDS011;11814;44.686;10.842;2024-03-23T03:04:54;31.27;;;21.88;;
23290;SDS011;11814;44.686;10.842;2024-03-23T03:07:20;31.38;;;22.45;;
23290;SDS011;11814;44.686;10.842;2024-03-23T03:09:45;29.30;;;23.10;;
23290;SDS011;11814;44.686;10.842;2024-03-23T03:12:11;29.67;;;22.95;;
23290;SDS011;11814;44.686;10.842;2024-03-23T03:14:36;34.38;;;23.45;;
23290;SDS011;11814;44.686;10.842;2024-03-23T03:17:02;32.25;;;23.48;;
23290;SDS011;11814;44.686;10.842;2024-03-23T03:19:28;28.77;;;23.48;;
23290;SDS011;11814;44.686;10.842;2024-03-23T03:21:54;32.20;;;22.52;;
23290;SDS011;11814;44.686;10.842;2024-03-23T03:24:20;29.60;;;21.95;;
23290;SDS011;11814;44.686;10.842;2024-03-23T03:26:46;28.40;;;21.77;;
23290;SDS011;11814;44.686;10.842;2024-03-23T03:29:12;29.92;;;22.92;;
23290;SDS011;11814;44.686;10.842;2024-03-23T03:31:38;27.23;;;20.77;;
23290;SDS011;11814;44.686;10.842;2024-03-23T03:34:04;30.35;;;22.65;;
23290;SDS011;11814;44.686;10.842;2024-03-23T03:36:30;30.55;;;22.55;;
23290;SDS011;11814;44.686;10.842;2024-03-23T03:38:56;26.98;;;19.48;;
23290;SDS011;11814;44.686;10.842;2024-03-23T03:41:21;35.03;;;23.63;;
23290;SDS011;11814;44.686;10.842;2024-03-23T03:43:47;34.65;;;22.45;;
23290;SDS011;11814;44.686;10.842;2024-03-23T03:46:12;29.35;;;22.05;;
23290;SDS011;11814;44.686;10.842;2024-03-23T03:48:38;30.50;;;21.23;;
23290;SDS011;11814;44.686;10.842;2024-03-23T03:51:04;28.05;;;20.35;;
23290;SDS011;11814;44.686;10.842;2024-03-23T03:53:30;28.75;;;21.05;;
23290;SDS011;11814;44.686;10.842;2024-03-23T03:55:56;33.92;;;21.13;;
23290;SDS011;11814;44.686;10.842;2024-03-23T03:58:22;27.38;;;20.77;;
23290;SDS011;11814;44.686;10.842;2024-03-23T04:00:47;27.00;;;20.25;;
23290;SDS011;11814;44.686;10.842;2024-03-23T04:03:13;29.42;;;21.42;;
23290;SDS011;11814;44.686;10.842;2024-03-23T04:05:38;28.85;;;20.80;;
23290;SDS011;11814;44.686;10.842;2024-03-23T04:08:05;27.33;;;19.83;;
23290;SDS011;11814;44.686;10.842;2024-03-23T04:10:32;28.92;;;19.45;;
23290;SDS011;11814;44.686;10.842;2024-03-23T04:12:58;28.02;;;19.80;;
23290;SDS011;11814;44.686;10.842;2024-03-23T04:15:23;25.65;;;19.77;;
23290;SDS011;11814;44.686;10.842;2024-03-23T04:17:49;26.50;;;20.15;;
23290;SDS011;11814;44.686;10.842;2024-03-23T04:20:14;26.52;;;19.60;;
23290;SDS011;11814;44.686;10.842;2024-03-23T04:22:42;24.15;;;18.77;;
23290;SDS011;11814;44.686;10.842;2024-03-23T04:25:10;30.10;;;19.92;;
23290;SDS011;11814;44.686;10.842;2024-03-23T04:27:36;26.83;;;20.33;;
23290;SDS011;11814;44.686;10.842;2024-03-23T04:30:02;27.23;;;19.10;;
23290;SDS011;11814;44.686;10.842;2024-03-23T04:32:30;28.10;;;19.88;;
23290;SDS011;11814;44.686;10.842;2024-03-23T04:34:56;27.15;;;19.63;;
23290;SDS011;11814;44.686;10.842;2024-03-23T04:37:22;26.02;;;19.45;;
23290;SDS011;11814;44.686;10.842;2024-03-23T04:39:47;27.10;;;20.30;;
23290;SDS011;11814;44.686;10.842;2024-03-23T04:42:16;25.30;;;19.83;;
23290;SDS011;11814;44.686;10.842;2024-03-23T04:44:42;27.25;;;21.70;;
23290;SDS011;11814;44.686;10.842;2024-03-23T04:47:07;23.85;;;19.55;;
23290;SDS011;11814;44.686;10.842;2024-03-23T04:49:33;28.02;;;21.48;;
23290;SDS011;11814;44.686;10.842;2024-03-23T04:52:01;29.35;;;20.00;;
23290;SDS011;11814;44.686;10.842;2024-03-23T04:54:30;24.95;;;19.70;;
23290;SDS011;11814;44.686;10.842;2024-03-23T04:56:57;30.13;;;21.40;;
23290;SDS011;11814;44.686;10.842;2024-03-23T04:59:23;31.60;;;22.13;;
23290;SDS011;11814;44.686;10.842;2024-03-23T05:01:48;29.40;;;21.35;;
23290;SDS011;11814;44.686;10.842;2024-03-23T05:04:14;30.80;;;21.92;;
23290;SDS011;11814;44.686;10.842;2024-03-23T05:06:40;29.13;;;22.65;;
23290;SDS011;11814;44.686;10.842;2024-03-23T05:09:05;30.20;;;23.42;;
23290;SDS011;11814;44.686;10.842;2024-03-23T05:11:32;32.17;;;22.65;;
23290;SDS011;11814;44.686;10.842;2024-03-23T05:13:58;35.13;;;22.30;;
23290;SDS011;11814;44.686;10.842;2024-03-23T05:16:24;27.40;;;19.08;;
23290;SDS011;11814;44.686;10.842;2024-03-23T05:18:49;25.00;;;19.77;;
23290;SDS011;11814;44.686;10.842;2024-03-23T05:21:15;28.48;;;20.15;;
23290;SDS011;11814;44.686;10.842;2024-03-23T05:23:41;29.42;;;22.02;;
23290;SDS011;11814;44.686;10.842;2024-03-23T05:26:08;26.33;;;20.55;;
23290;SDS011;11814;44.686;10.842;2024-03-23T05:28:34;28.95;;;22.40;;
23290;SDS011;11814;44.686;10.842;2024-03-23T05:31:00;28.02;;;21.67;;
23290;SDS011;11814;44.686;10.842;2024-03-23T05:33:25;30.13;;;21.70;;
23290;SDS011;11814;44.686;10.842;2024-03-23T05:35:58;30.35;;;21.20;;
23290;SDS011;11814;44.686;10.842;2024-03-23T05:38:25;27.75;;;20.67;;
23290;SDS011;11814;44.686;10.842;2024-03-23T05:40:57;25.63;;;19.58;;
23290;SDS011;11814;44.686;10.842;2024-03-23T05:43:24;31.75;;;21.35;;
23290;SDS011;11814;44.686;10.842;2024-03-23T05:45:53;28.80;;;22.67;;
23290;SDS011;11814;44.686;10.842;2024-03-23T05:48:23;26.88;;;20.67;;
23290;SDS011;11814;44.686;10.842;2024-03-23T05:50:49;27.85;;;20.95;;
23290;SDS011;11814;44.686;10.842;2024-03-23T05:53:15;31.73;;;21.98;;
23290;SDS011;11814;44.686;10.842;2024-03-23T05:55:42;29.15;;;21.00;;
23290;SDS011;11814;44.686;10.842;2024-03-23T05:58:07;29.02;;;21.75;;
23290;SDS011;11814;44.686;10.842;2024-03-23T06:00:33;27.02;;;18.52;;
23290;SDS011;11814;44.686;10.842;2024-03-23T06:02:59;26.45;;;18.02;;
23290;SDS011;11814;44.686;10.842;2024-03-23T06:05:25;20.40;;;17.23;;
23290;SDS011;11814;44.686;10.842;2024-03-23T06:07:50;23.38;;;17.98;;
23290;SDS011;11814;44.686;10.842;2024-03-23T06:10:16;27.17;;;20.20;;
23290;SDS011;11814;44.686;10.842;2024-03-23T06:12:42;26.20;;;18.40;;
23290;SDS011;11814;44.686;10.842;2024-03-23T06:15:07;25.08;;;18.60;;
23290;SDS011;11814;44.686;10.842;2024-03-23T06:17:37;23.17;;;17.33;;
23290;SDS011;11814;44.686;10.842;2024-03-23T06:20:03;21.13;;;15.75;;
23290;SDS011;11814;44.686;10.842;2024-03-23T06:22:31;20.83;;;16.13;;
23290;SDS011;11814;44.686;10.842;2024-03-23T06:24:56;26.35;;;18.77;;
23290;SDS011;11814;44.686;10.842;2024-03-23T06:27:22;24.90;;;17.90;;
23290;SDS011;11814;44.686;10.842;2024-03-23T06:29:48;22.45;;;17.58;;
23290;SDS011;11814;44.686;10.842;2024-03-23T06:32:13;20.55;;;16.75;;
23290;SDS011;11814;44.686;10.842;2024-03-23T06:34:42;22.23;;;15.93;;
23290;SDS011;11814;44.686;10.842;2024-03-23T06:37:08;20.40;;;17.20;;
23290;SDS011;11814;44.686;10.842;2024-03-23T06:39:37;18.85;;;16.85;;
23290;SDS011;11814;44.686;10.842;2024-03-23T06:42:03;30.35;;;18.00;;
23290;SDS011;11814;44.686;10.842;2024-03-23T06:44:29;18.23;;;14.02;;
23290;SDS011;11814;44.686;10.842;2024-03-23T06:46:55;17.00;;;13.88;;
23290;SDS011;11814;44.686;10.842;2024-03-23T06:49:22;16.35;;;13.40;;
23290;SDS011;11814;44.686;10.842;2024-03-23T06:51:47;15.88;;;14.13;;
23290;SDS011;11814;44.686;10.842;2024-03-23T06:54:13;18.17;;;13.77;;
23290;SDS011;11814;44.686;10.842;2024-03-23T06:56:39;17.45;;;14.20;;
23290;SDS011;11814;44.686;10.842;2024-03-23T06:59:05;19.10;;;15.02;;
23290;SDS011;11814;44.686;10.842;2024-03-23T07:01:31;22.38;;;15.57;;
23290;SDS011;11814;44.686;10.842;2024-03-23T07:03:57;19.30;;;16.23;;
23290;SDS011;11814;44.686;10.842;2024-03-23T07:06:23;18.83;;;14.95;;
23290;SDS011;11814;44.686;10.842;2024-03-23T07:08:49;18.02;;;14.93;;
23290;SDS011;11814;44.686;10.842;2024-03-23T07:11:23;16.48;;;13.80;;
23290;SDS011;11814;44.686;10.842;2024-03-23T07:13:51;14.52;;;12.27;;
23290;SDS011;11814;44.686;10.842;2024-03-23T07:16:19;17.92;;;13.73;;
23290;SDS011;11814;44.686;10.842;2024-03-23T07:18:46;15.77;;;12.93;;
23290;SDS011;11814;44.686;10.842;2024-03-23T07:21:12;17.95;;;12.40;;
23290;SDS011;11814;44.686;10.842;2024-03-23T07:23:41;14.07;;;11.63;;
23290;SDS011;11814;44.686;10.842;2024-03-23T07:26:09;13.60;;;11.30;;
23290;SDS011;11814;44.686;10.842;2024-03-23T07:28:38;13.88;;;10.10;;
23290;SDS011;11814;44.686;10.842;2024-03-23T07:31:09;16.65;;;10.77;;
23290;SDS011;11814;44.686;10.842;2024-03-23T07:33:36;11.95;;;9.43;;
23290;SDS011;11814;44.686;10.842;2024-03-23T07:36:06;17.30;;;9.65;;
23290;SDS011;11814;44.686;10.842;2024-03-23T07:38:31;14.23;;;9.25;;
23290;SDS011;11814;44.686;10.842;2024-03-23T07:41:09;13.93;;;8.70;;
23290;SDS011;11814;44.686;10.842;2024-03-23T07:43:37;10.88;;;8.48;;
23290;SDS011;11814;44.686;10.842;2024-03-23T07:46:04;14.77;;;8.18;;
23290;SDS011;11814;44.686;10.842;2024-03-23T07:48:30;13.02;;;7.82;;
23290;SDS011;11814;44.686;10.842;2024-03-23T07:50:59;14.10;;;8.38;;
23290;SDS011;11814;44.686;10.842;2024-03-23T07:53:35;12.00;;;7.20;;
23290;SDS011;11814;44.686;10.842;2024-03-23T07:56:08;11.27;;;7.63;;
23290;SDS011;11814;44.686;10.842;2024-03-23T07:58:37;10.20;;;7.40;;
23290;SDS011;11814;44.686;10.842;2024-03-23T08:01:04;8.13;;;6.60;;
23290;SDS011;11814;44.686;10.842;2024-03-23T08:03:33;13.18;;;7.70;;
23290;SDS011;11814;44.686;10.842;2024-03-23T08:06:06;11.13;;;7.57;;
23290;SDS011;11814;44.686;10.842;2024-03-23T08:08:36;9.25;;;7.22;;
23290;SDS011;11814;44.686;10.842;2024-03-23T08:11:01;10.10;;;6.20;;
23290;SDS011;11814;44.686;10.842;2024-03-23T08:13:28;10.07;;;5.88;;
23290;SDS011;11814;44.686;10.842;2024-03-23T08:15:57;6.53;;;5.18;;
23290;SDS011;11814;44.686;10.842;2024-03-23T08:18:27;6.88;;;5.63;;
23290;SDS011;11814;44.686;10.842;2024-03-23T08:20:59;8.18;;;5.97;;
23290;SDS011;11814;44.686;10.842;2024-03-23T08:23:32;7.18;;;6.10;;
23290;SDS011;11814;44.686;10.842;2024-03-23T08:26:01;6.60;;;4.90;;
23290;SDS011;11814;44.686;10.842;2024-03-23T08:28:28;5.60;;;4.18;;
23290;SDS011;11814;44.686;10.842;2024-03-23T08:30:54;4.07;;;3.67;;
23290;SDS011;11814;44.686;10.842;2024-03-23T08:33:20;5.85;;;4.35;;
23290;SDS011;11814;44.686;10.842;2024-03-23T08:35:57;6.00;;;3.65;;
23290;SDS011;11814;44.686;10.842;2024-03-23T08:38:24;4.05;;;2.30;;
23290;SDS011;11814;44.686;10.842;2024-03-23T08:41:00;3.70;;;3.15;;
23290;SDS011;11814;44.686;10.842;2024-03-23T08:43:30;4.03;;;2.75;;
23290;SDS011;11814;44.686;10.842;2024-03-23T08:46:09;5.05;;;2.92;;
23290;SDS011;11814;44.686;10.842;2024-03-23T08:48:37;4.15;;;2.75;;
23290;SDS011;11814;44.686;10.842;2024-03-23T08:51:05;6.93;;;3.25;;
23290;SDS011;11814;44.686;10.842;2024-03-23T08:53:31;6.03;;;3.05;;
23290;SDS011;11814;44.686;10.842;2024-03-23T08:55:58;4.20;;;2.50;;
23290;SDS011;11814;44.686;10.842;2024-03-23T08:58:25;4.28;;;2.78;;
23290;SDS011;11814;44.686;10.842;2024-03-23T09:00:52;4.28;;;3.42;;
23290;SDS011;11814;44.686;10.842;2024-03-23T09:03:18;4.45;;;3.10;;
23290;SDS011;11814;44.686;10.842;2024-03-23T09:05:43;5.25;;;3.53;;
23290;SDS011;11814;44.686;10.842;2024-03-23T09:08:09;4.78;;;3.10;;
23290;SDS011;11814;44.686;10.842;2024-03-23T09:10:39;5.35;;;3.33;;
23290;SDS011;11814;44.686;10.842;2024-03-23T09:13:05;5.22;;;3.60;;
23290;SDS011;11814;44.686;10.842;2024-03-23T09:15:34;5.18;;;3.53;;
23290;SDS011;11814;44.686;10.842;2024-03-23T09:18:01;6.53;;;3.70;;
23290;SDS011;11814;44.686;10.842;2024-03-23T09:20:27;4.95;;;3.33;;
23290;SDS011;11814;44.686;10.842;2024-03-23T09:22:53;6.60;;;4.03;;
23290;SDS011;11814;44.686;10.842;2024-03-23T09:25:19;6.05;;;3.92;;
23290;SDS011;11814;44.686;10.842;2024-03-23T09:27:48;7.50;;;4.10;;
23290;SDS011;11814;44.686;10.842;2024-03-23T09:30:14;6.97;;;4.18;;
23290;SDS011;11814;44.686;10.842;2024-03-23T09:32:41;7.50;;;4.43;;
23290;SDS011;11814;44.686;10.842;2024-03-23T09:35:08;5.28;;;4.22;;
23290;SDS011;11814;44.686;10.842;2024-03-23T09:37:34;8.98;;;5.22;;
23290;SDS011;11814;44.686;10.842;2024-03-23T09:40:00;5.25;;;4.25;;
23290;SDS011;11814;44.686;10.842;2024-03-23T09:42:25;7.05;;;3.97;;
23290;SDS011;11814;44.686;10.842;2024-03-23T09:44:51;6.28;;;4.35;;
23290;SDS011;11814;44.686;10.842;2024-03-23T09:47:17;7.88;;;4.47;;
23290;SDS011;11814;44.686;10.842;2024-03-23T09:49:43;6.63;;;4.40;;
23290;SDS011;11814;44.686;10.842;2024-03-23T09:52:09;8.30;;;5.05;;
23290;SDS011;11814;44.686;10.842;2024-03-23T09:54:35;6.95;;;4.70;;
23290;SDS011;11814;44.686;10.842;2024-03-23T09:57:01;7.13;;;4.68;;
23290;SDS011;11814;44.686;10.842;2024-03-23T09:59:26;6.78;;;5.03;;
23290;SDS011;11814;44.686;10.842;2024-03-23T10:01:52;7.20;;;4.43;;
23290;SDS011;11814;44.686;10.842;2024-03-23T10:07:13;10.43;;;3.67;;
23290;SDS011;11814;44.686;10.842;2024-03-23T10:09:48;4.68;;;3.13;;
23290;SDS011;11814;44.686;10.842;2024-03-23T10:12:16;5.35;;;2.88;;
23290;SDS011;11814;44.686;10.842;2024-03-23T10:14:42;5.65;;;3.03;;
23290;SDS011;11814;44.686;10.842;2024-03-23T10:17:12;4.50;;;2.33;;
23290;SDS011;11814;44.686;10.842;2024-03-23T10:19:45;8.90;;;2.97;;
23290;SDS011;11814;44.686;10.842;2024-03-23T10:22:17;4.97;;;2.75;;
23290;SDS011;11814;44.686;10.842;2024-03-23T10:24:43;9.18;;;3.55;;
23290;SDS011;11814;44.686;10.842;2024-03-23T10:27:09;6.47;;;3.60;;
23290;SDS011;11814;44.686;10.842;2024-03-23T10:29:34;5.60;;;2.20;;
23290;SDS011;11814;44.686;10.842;2024-03-23T10:32:12;7.10;;;4.45;;
23290;SDS011;11814;44.686;10.842;2024-03-23T10:34:41;9.77;;;3.38;;
23290;SDS011;11814;44.686;10.842;2024-03-23T10:37:07;10.05;;;3.28;;
23290;SDS011;11814;44.686;10.842;2024-03-23T10:39:40;6.30;;;3.35;;
23290;SDS011;11814;44.686;10.842;2024-03-23T10:42:09;6.38;;;3.00;;
23290;SDS011;11814;44.686;10.842;2024-03-23T10:44:38;6.97;;;3.65;;
23290;SDS011;11814;44.686;10.842;2024-03-23T10:47:04;8.65;;;4.00;;
23290;SDS011;11814;44.686;10.842;2024-03-23T10:49:31;6.22;;;3.75;;
23290;SDS011;11814;44.686;10.842;2024-03-23T10:51:58;9.23;;;3.60;;
23290;SDS011;11814;44.686;10.842;2024-03-23T10:54:25;6.70;;;3.60;;
23290;SDS011;11814;44.686;10.842;2024-03-23T10:56:58;6.63;;;3.97;;
23290;SDS011;11814;44.686;10.842;2024-03-23T10:59:28;8.52;;;3.95;;
23290;SDS011;11814;44.686;10.842;2024-03-23T11:01:59;6.72;;;3.53;;
23290;SDS011;11814;44.686;10.842;2024-03-23T11:04:35;8.18;;;4.10;;
23290;SDS011;11814;44.686;10.842;2024-03-23T11:09:49;5.82;;;3.70;;
23290;SDS011;11814;44.686;10.842;2024-03-23T11:14:49;9.35;;;4.88;;
23290;SDS011;11814;44.686;10.842;2024-03-23T11:20:02;8.32;;;4.07;;
23290;SDS011;11814;44.686;10.842;2024-03-23T11:25:24;8.20;;;4.68;;
23290;SDS011;11814;44.686;10.842;2024-03-23T11:27:52;13.35;;;5.20;;
23290;SDS011;11814;44.686;10.842;2024-03-23T11:30:22;6.60;;;4.75;;
23290;SDS011;11814;44.686;10.842;2024-03-23T11:32:50;8.80;;;4.97;;
23290;SDS011;11814;44.686;10.842;2024-03-23T11:35:26;7.05;;;5.25;;
23290;SDS011;11814;44.686;10.842;2024-03-23T11:38:14;7.70;;;5.35;;
23290;SDS011;11814;44.686;10.842;2024-03-23T11:43:10;11.25;;;5.78;;
23290;SDS011;11814;44.686;10.842;2024-03-23T11:45:39;9.48;;;6.10;;
23290;SDS011;11814;44.686;10.842;2024-03-23T11:48:08;10.35;;;7.20;;
23290;SDS011;11814;44.686;10.842;2024-03-23T11:50:48;9.45;;;6.40;;
23290;SDS011;11814;44.686;10.842;2024-03-23T11:53:16;14.98;;;6.90;;
23290;SDS011;11814;44.686;10.842;2024-03-23T11:58:11;11.00;;;6.60;;
23290;SDS011;11814;44.686;10.842;2024-03-23T12:00:37;10.35;;;6.57;;
23290;SDS011;11814;44.686;10.842;2024-03-23T12:03:03;10.15;;;6.70;;
23290;SDS011;11814;44.686;10.842;2024-03-23T12:05:30;10.35;;;6.47;;
23290;SDS011;11814;44.686;10.842;2024-03-23T12:08:14;9.82;;;7.40;;
23290;SDS011;11814;44.686;10.842;2024-03-23T12:10:47;12.90;;;9.40;;
23290;SDS011;11814;44.686;10.842;2024-03-23T12:13:34;14.00;;;8.63;;
23290;SDS011;11814;44.686;10.842;2024-03-23T12:18:48;12.10;;;10.05;;
23290;SDS011;11814;44.686;10.842;2024-03-23T12:21:14;15.25;;;9.85;;
23290;SDS011;11814;44.686;10.842;2024-03-23T12:23:41;12.15;;;9.35;;
23290;SDS011;11814;44.686;10.842;2024-03-23T12:26:09;14.52;;;10.30;;
23290;SDS011;11814;44.686;10.842;2024-03-23T12:28:35;19.27;;;11.90;;
23290;SDS011;11814;44.686;10.842;2024-03-23T12:31:00;18.27;;;12.55;;
23290;SDS011;11814;44.686;10.842;2024-03-23T12:33:26;17.85;;;12.77;;
23290;SDS011;11814;44.686;10.842;2024-03-23T12:35:52;17.70;;;13.32;;
23290;SDS011;11814;44.686;10.842;2024-03-23T12:38:18;20.42;;;13.50;;
23290;SDS011;11814;44.686;10.842;2024-03-23T12:40:48;17.38;;;12.93;;
23290;SDS011;11814;44.686;10.842;2024-03-23T12:43:14;19.83;;;14.05;;
23290;SDS011;11814;44.686;10.842;2024-03-23T12:45:40;18.65;;;12.85;;
23290;SDS011;11814;44.686;10.842;2024-03-23T12:48:06;21.58;;;14.27;;
23290;SDS011;11814;44.686;10.842;2024-03-23T12:50:32;22.17;;;13.52;;
23290;SDS011;11814;44.686;10.842;2024-03-23T12:52:58;20.05;;;13.35;;
23290;SDS011;11814;44.686;10.842;2024-03-23T12:55:23;22.17;;;15.40;;
23290;SDS011;11814;44.686;10.842;2024-03-23T12:57:49;19.80;;;13.80;;
23290;SDS011;11814;44.686;10.842;2024-03-23T13:00:15;22.02;;;14.93;;
23290;SDS011;11814;44.686;10.842;2024-03-23T13:02:43;18.60;;;12.95;;
23290;SDS011;11814;44.686;10.842;2024-03-23T13:05:09;18.58;;;14.93;;
23290;SDS011;11814;44.686;10.842;2024-03-23T13:07:35;21.20;;;14.13;;
23290;SDS011;11814;44.686;10.842;2024-03-23T13:10:02;19.63;;;14.27;;
23290;SDS011;11814;44.686;10.842;2024-03-23T13:12:28;18.80;;;12.63;;
23290;SDS011;11814;44.686;10.842;2024-03-23T13:14:55;18.98;;;13.52;;
23290;SDS011;11814;44.686;10.842;2024-03-23T13:17:21;19.27;;;14.02;;
23290;SDS011;11814;44.686;10.842;2024-03-23T13:19:47;19.13;;;14.27;;
23290;SDS011;11814;44.686;10.842;2024-03-23T13:22:13;20.17;;;14.15;;
23290;SDS011;11814;44.686;10.842;2024-03-23T13:24:38;21.20;;;14.13;;
23290;SDS011;11814;44.686;10.842;2024-03-23T13:27:04;20.40;;;12.68;;
23290;SDS011;11814;44.686;10.842;2024-03-23T13:29:32;18.33;;;12.73;;
23290;SDS011;11814;44.686;10.842;2024-03-23T13:31:59;18.13;;;13.63;;
23290;SDS011;11814;44.686;10.842;2024-03-23T13:34:25;19.40;;;13.18;;
23290;SDS011;11814;44.686;10.842;2024-03-23T13:36:50;17.58;;;11.30;;
23290;SDS011;11814;44.686;10.842;2024-03-23T13:39:16;20.10;;;14.32;;
23290;SDS011;11814;44.686;10.842;2024-03-23T13:41:43;17.98;;;11.73;;
23290;SDS011;11814;44.686;10.842;2024-03-23T13:44:09;16.85;;;10.90;;
23290;SDS011;11814;44.686;10.842;2024-03-23T13:46:36;9.57;;;5.25;;
23290;SDS011;11814;44.686;10.842;2024-03-23T13:49:02;7.60;;;3.50;;
23290;SDS011;11814;44.686;10.842;2024-03-23T13:51:28;8.98;;;3.10;;
23290;SDS011;11814;44.686;10.842;2024-03-23T13:53:54;5.38;;;1.40;;
23290;SDS011;11814;44.686;10.842;2024-03-23T13:56:21;5.07;;;0.93;;
23290;SDS011;11814;44.686;10.842;2024-03-23T13:58:48;6.53;;;1.23;;
23290;SDS011;11814;44.686;10.842;2024-03-23T14:01:14;6.53;;;1.05;;
23290;SDS011;11814;44.686;10.842;2024-03-23T14:03:40;7.03;;;1.30;;
23290;SDS011;11814;44.686;10.842;2024-03-23T14:06:06;9.73;;;1.35;;
23290;SDS011;11814;44.686;10.842;2024-03-23T14:08:32;4.18;;;1.00;;
23290;SDS011;11814;44.686;10.842;2024-03-23T14:11:00;5.65;;;1.13;;
23290;SDS011;11814;44.686;10.842;2024-03-23T14:13:27;3.88;;;1.00;;
23290;SDS011;11814;44.686;10.842;2024-03-23T14:15:53;3.92;;;1.42;;
23290;SDS011;11814;44.686;10.842;2024-03-23T14:18:19;4.13;;;1.15;;
23290;SDS011;11814;44.686;10.842;2024-03-23T14:20:45;4.80;;;1.40;;
23290;SDS011;11814;44.686;10.842;2024-03-23T14:23:10;15.27;;;1.60;;
23290;SDS011;11814;44.686;10.842;2024-03-23T14:25:36;5.68;;;1.17;;
23290;SDS011;11814;44.686;10.842;2024-03-23T14:28:01;4.15;;;1.17;;
23290;SDS011;11814;44.686;10.842;2024-03-23T14:30:27;7.43;;;1.52;;
23290;SDS011;11814;44.686;10.842;2024-03-23T14:32:53;8.30;;;1.60;;
23290;SDS011;11814;44.686;10.842;2024-03-23T14:35:19;5.20;;;1.38;;
23290;SDS011;11814;44.686;10.842;2024-03-23T14:37:44;8.73;;;1.80;;
23290;SDS011;11814;44.686;10.842;2024-03-23T14:40:12;8.15;;;1.48;;
23290;SDS011;11814;44.686;10.842;2024-03-23T14:42:38;4.03;;;1.40;;
23290;SDS011;11814;44.686;10.842;2024-03-23T14:45:04;10.93;;;2.13;;
23290;SDS011;11814;44.686;10.842;2024-03-23T14:47:30;7.90;;;1.80;;
23290;SDS011;11814;44.686;10.842;2024-03-23T14:49:59;6.30;;;1.75;;
23290;SDS011;11814;44.686;10.842;2024-03-23T14:52:25;7.43;;;1.45;;
23290;SDS011;11814;44.686;10.842;2024-03-23T14:54:51;3.58;;;1.55;;
23290;SDS011;11814;44.686;10.842;2024-03-23T14:57:17;5.88;;;1.60;;
23290;SDS011;11814;44.686;10.842;2024-03-23T14:59:44;9.57;;;1.90;;
23290;SDS011;11814;44.686;10.842;2024-03-23T15:02:09;4.95;;;1.45;;
23290;SDS011;11814;44.686;10.842;2024-03-23T15:04:37;9.05;;;1.88;;
23290;SDS011;11814;44.686;10.842;2024-03-23T15:07:05;5.75;;;1.33;;
23290;SDS011;11814;44.686;10.842;2024-03-23T15:09:31;7.88;;;1.50;;
23290;SDS011;11814;44.686;10.842;2024-03-23T15:11:57;8.35;;;1.48;;
23290;SDS011;11814;44.686;10.842;2024-03-23T15:14:23;14.82;;;1.60;;
23290;SDS011;11814;44.686;10.842;2024-03-23T15:16:49;6.68;;;1.55;;
23290;SDS011;11814;44.686;10.842;2024-03-23T15:19:16;10.73;;;1.45;;
23290;SDS011;11814;44.686;10.842;2024-03-23T15:21:42;10.35;;;1.42;;
23290;SDS011;11814;44.686;10.842;2024-03-23T15:24:08;9.60;;;1.30;;
23290;SDS011;11814;44.686;10.842;2024-03-23T15:26:36;11.05;;;1.50;;
23290;SDS011;11814;44.686;10.842;2024-03-23T15:29:02;8.30;;;1.38;;
23290;SDS011;11814;44.686;10.842;2024-03-23T15:31:28;7.75;;;1.10;;